CheckWX is a tool to help pilots better visualize weather data.  It is not intended as a substitute for an official pre-flight weather briefing.

06:45:53 UTC

1A9 METAR
Prattville - Grouby Field Airport
Prattville, Alabama, USA
Current

11 mins ago

K1A9 160635Z AUTO 00000KT 10SM CLR 21/21 A3002 RMK AO2 T02050205
Observed
Jun-16 @ 06:35 UTC
Visibility
10 SM
Flight Rules
VFR
Cloud Levels
  • Clear skies
Temperature
21°C / 70°F
Dewpoint
21°C / 70°F
Humidity
100%
Altimeter
30.02" Hg
Pressure
1016.62 hPa
Previous

31 mins ago

K1A9 160615Z AUTO 00000KT 10SM CLR 21/21 A3002 RMK AO2 T02060206
Observed
Jun-16 @ 06:15 UTC
Visibility
10 SM
Flight Rules
VFR
Cloud Levels
  • Clear skies
Temperature
21°C / 70°F
Dewpoint
21°C / 70°F
Humidity
100%
Altimeter
30.02" Hg
Pressure
1016.62 hPa
Previous

51 mins ago

K1A9 160555Z AUTO 00000KT 10SM CLR 21/21 A3003 RMK AO2 T02080208 10290 20206 403100156
Observed
Jun-16 @ 05:55 UTC
Visibility
10 SM
Flight Rules
VFR
Cloud Levels
  • Clear skies
Temperature
21°C / 70°F
Dewpoint
21°C / 70°F
Humidity
100%
Altimeter
30.03" Hg
Pressure
1016.92 hPa